Time;durP1;ratioP1;P1;durP2;ratioP2;P2;SDS_P1;SDS_P2;PMS_P1;PMS_P2;Temp;Humidity;BMP_temperature;BMP_pressure;BME280_temperature;BME280_humidity;BME280_pressure;Samples;Min_cycle;Max_cycle;Signal;HPM_P1;HPM_P2
2022/03/22 00:00:30;;;;;;;9.23;1.90;;;;;;;;;;5091893;28;20040;-69
2022/03/22 00:03:05;;;;;;;7.60;1.90;;;;;;;;;;5092032;28;20040;-70
2022/03/22 00:05:40;;;;;;;8.52;2.25;;;;;;;;;;5040595;28;20078;-70
2022/03/22 00:08:12;;;;;;;6.65;1.77;;;;;;;;;;5091464;28;20055;-68
2022/03/22 00:10:46;;;;;;;7.78;1.70;;;;;;;;;;5074728;28;20051;-70
2022/03/22 00:13:17;;;;;;;6.07;1.60;;;;;;;;;;5039974;28;20524;-70
2022/03/22 00:15:55;;;;;;;10.18;2.33;;;;;;;;;;5073556;28;20048;-70
2022/03/22 00:18:47;;;;;;;9.63;4.82;;;;;;;;;;5048595;28;20057;-69
2022/03/22 00:21:21;;;;;;;4.57;2.03;;;;;;;;;;5049195;28;20516;-70
2022/03/22 00:23:54;;;;;;;12.38;4.65;;;;;;;;;;5009044;28;20050;-70
2022/03/22 00:26:29;;;;;;;7.13;2.65;;;;;;;;;;5009276;28;20061;-70
2022/03/22 00:29:03;;;;;;;5.25;1.55;;;;;;;;;;4976650;28;20061;-68
2022/03/22 00:31:39;;;;;;;3.72;1.58;;;;;;;;;;5009161;28;20057;-69
2022/03/22 00:34:15;;;;;;;8.70;1.70;;;;;;;;;;5008880;28;20061;-69
2022/03/22 00:36:49;;;;;;;4.95;1.58;;;;;;;;;;4993042;28;20518;-69
2022/03/22 00:39:20;;;;;;;3.72;1.52;;;;;;;;;;4989164;28;20077;-69
2022/03/22 00:41:52;;;;;;;24.60;13.68;;;;;;;;;;4989201;28;20062;-70
2022/03/22 00:44:24;;;;;;;5.70;1.73;;;;;;;;;;4941282;28;20062;-70
2022/03/22 00:46:59;;;;;;;5.20;1.90;;;;;;;;;;4989504;28;20053;-70
2022/03/22 00:49:33;;;;;;;4.47;2.45;;;;;;;;;;4995484;28;20058;-70
2022/03/22 00:52:05;;;;;;;2.90;1.02;;;;;;;;;;5008883;28;20426;-70
2022/03/22 00:54:41;;;;;;;2.33;0.90;;;;;;;;;;4976679;28;20046;-70
2022/03/22 00:57:13;;;;;;;6.15;1.13;;;;;;;;;;4960068;28;20445;-70
2022/03/22 01:00:04;;;;;;;2.47;0.98;;;;;;;;;;4975995;28;20054;-70
2022/03/22 01:02:41;;;;;;;2.85;0.80;;;;;;;;;;5026944;28;20053;-71
2022/03/22 01:05:18;;;;;;;1.92;0.90;;;;;;;;;;4995199;28;20528;-67
2022/03/22 01:07:56;;;;;;;1.65;0.70;;;;;;;;;;5028467;28;20057;-70
2022/03/22 01:10:31;;;;;;;8.10;4.22;;;;;;;;;;5028193;28;20058;-70
2022/03/22 01:13:02;;;;;;;2.85;1.50;;;;;;;;;;4992512;28;20438;-69
2022/03/22 01:15:35;;;;;;;3.55;0.93;;;;;;;;;;5008603;28;20068;-70
2022/03/22 01:18:09;;;;;;;4.13;0.70;;;;;;;;;;4988099;28;20057;-70
2022/03/22 01:20:44;;;;;;;1.67;0.60;;;;;;;;;;4956348;28;20065;-70
2022/03/22 01:23:15;;;;;;;3.00;0.52;;;;;;;;;;4969488;28;20059;-71
2022/03/22 01:25:49;;;;;;;1.27;0.60;;;;;;;;;;4953156;28;20073;-69
2022/03/22 01:28:23;;;;;;;1.20;0.52;;;;;;;;;;4969497;28;20208;-73
2022/03/22 01:30:54;;;;;;;0.88;0.43;;;;;;;;;;4969326;28;20050;-70
2022/03/22 01:33:26;;;;;;;1.40;0.60;;;;;;;;;;4922202;28;20057;-70
2022/03/22 01:35:58;;;;;;;1.13;0.57;;;;;;;;;;4934486;29;20500;-70
2022/03/22 01:38:31;;;;;;;1.00;0.50;;;;;;;;;;4904430;29;20063;-71
2022/03/22 01:41:01;;;;;;;1.10;0.52;;;;;;;;;;4896087;29;20416;-70
2022/03/22 01:43:32;;;;;;;1.58;0.73;;;;;;;;;;4880573;29;20055;-69
2022/03/22 01:46:04;;;;;;;0.70;0.47;;;;;;;;;;4896183;29;20099;-67
2022/03/22 01:48:36;;;;;;;4.55;0.73;;;;;;;;;;4876259;29;20045;-71
2022/03/22 01:51:09;;;;;;;;;;;;;;;;;;4903588;29;20054;-70
2022/03/22 01:53:41;;;;;;;1.17;0.40;;;;;;;;;;4915391;29;19930;-70
2022/03/22 01:56:13;;;;;;;0.77;0.40;;;;;;;;;;4861365;29;20041;-71
2022/03/22 01:58:48;;;;;;;1.50;0.50;;;;;;;;;;4896010;29;20505;-71
2022/03/22 02:07:06;;;;;;;2.72;0.60;;;;;;;;;;4908657;29;20056;-70
2022/03/22 02:09:38;;;;;;;3.58;0.40;;;;;;;;;;4918386;29;20312;-70
2022/03/22 02:12:09;;;;;;;1.10;0.45;;;;;;;;;;4933751;29;20055;-69
2022/03/22 02:14:42;;;;;;;2.15;0.50;;;;;;;;;;4916632;29;20492;-72
2022/03/22 02:17:13;;;;;;;2.45;0.40;;;;;;;;;;4933564;29;20047;-69
2022/03/22 02:19:47;;;;;;;1.02;0.40;;;;;;;;;;4952099;29;20086;-69
2022/03/22 02:22:22;;;;;;;0.68;0.40;;;;;;;;;;4952714;29;20054;-68
2022/03/22 02:24:54;;;;;;;0.82;0.40;;;;;;;;;;4914544;29;20497;-70
2022/03/22 02:27:28;;;;;;;0.73;0.40;;;;;;;;;;4914847;29;20060;-69
2022/03/22 02:32:56;;;;;;;0.82;0.40;;;;;;;;;;4916723;29;20059;-72
2022/03/22 02:35:30;;;;;;;0.90;0.50;;;;;;;;;;4897455;29;20057;-70
2022/03/22 02:38:03;;;;;;;0.98;0.50;;;;;;;;;;4914727;29;20060;-70
2022/03/22 02:40:35;;;;;;;1.33;0.40;;;;;;;;;;4914841;29;20063;-71
2022/03/22 02:43:07;;;;;;;0.80;0.40;;;;;;;;;;4914399;29;20417;-69
2022/03/22 02:45:37;;;;;;;1.75;0.43;;;;;;;;;;4897406;29;20063;-70
2022/03/22 02:48:08;;;;;;;1.35;0.60;;;;;;;;;;4895136;29;20052;-69
2022/03/22 02:50:43;;;;;;;;;;;;;;;;;;4912190;29;20126;-69
2022/03/22 02:53:14;;;;;;;1.25;0.40;;;;;;;;;;4914272;29;19939;-70
2022/03/22 02:55:44;;;;;;;0.73;0.30;;;;;;;;;;4930520;29;20060;-70
2022/03/22 02:58:20;;;;;;;1.10;0.32;;;;;;;;;;4932983;29;20056;-70
2022/03/22 03:00:51;;;;;;;0.47;0.30;;;;;;;;;;4917777;29;20055;-70
2022/03/22 03:03:22;;;;;;;3.00;0.70;;;;;;;;;;4933040;29;20416;-70
2022/03/22 03:05:55;;;;;;;2.15;0.80;;;;;;;;;;4917871;29;20063;-70
2022/03/22 03:08:26;;;;;;;0.98;0.50;;;;;;;;;;4933137;29;20055;-71
2022/03/22 03:10:58;;;;;;;0.80;0.40;;;;;;;;;;4913890;29;20480;-70
2022/03/22 03:14:38;;;;;;;0.60;0.40;;;;;;;;;;4888876;29;20056;-68
2022/03/22 03:16:22;;;;;;;1.20;0.50;;;;;;;;;;4913967;29;20048;-70
2022/03/22 03:18:53;;;;;;;1.25;0.43;;;;;;;;;;4898383;29;20063;-70
2022/03/22 03:21:27;;;;;;;2.63;0.50;;;;;;;;;;4913814;29;20064;-69
2022/03/22 03:23:59;;;;;;;1.35;0.60;;;;;;;;;;4928711;29;20055;-69
2022/03/22 03:26:32;;;;;;;5.30;0.50;;;;;;;;;;4963810;28;20095;-70
2022/03/22 03:29:05;;;;;;;0.82;0.40;;;;;;;;;;4939135;28;20783;-69
2022/03/22 03:31:37;;;;;;;0.95;0.47;;;;;;;;;;4971322;28;20154;-70
2022/03/22 03:34:07;;;;;;;;;;;;;;;;;;4939754;28;20062;-70
2022/03/22 03:36:37;;;;;;;3.45;0.57;;;;;;;;;;4931939;29;20315;-70
2022/03/22 03:39:09;;;;;;;2.05;0.32;;;;;;;;;;4928795;29;20051;-70
2022/03/22 03:41:54;;;;;;;4.82;0.40;;;;;;;;;;4962387;28;20062;-70
2022/03/22 03:47:16;;;;;;;2.95;0.50;;;;;;;;;;4970736;28;20050;-70
2022/03/22 03:49:49;;;;;;;3.05;0.50;;;;;;;;;;4957659;28;20050;-68
2022/03/22 03:52:28;;;;;;;1.45;0.70;;;;;;;;;;4974483;28;20054;-70
2022/03/22 03:55:00;;;;;;;1.00;0.50;;;;;;;;;;4990073;28;20058;-70
2022/03/22 03:57:32;;;;;;;2.55;0.65;;;;;;;;;;4989456;28;20058;-70
2022/03/22 04:00:07;;;;;;;7.03;0.63;;;;;;;;;;4990276;28;20050;-70
2022/03/22 04:02:43;;;;;;;1.13;0.30;;;;;;;;;;4957525;28;20054;-70
2022/03/22 04:05:14;;;;;;;1.52;0.43;;;;;;;;;;4974243;28;20415;-69
2022/03/22 04:07:44;;;;;;;2.33;0.75;;;;;;;;;;4989923;28;20058;-70
2022/03/22 04:10:15;;;;;;;0.88;0.40;;;;;;;;;;4989906;28;20062;-70
2022/03/22 04:12:47;;;;;;;2.58;0.63;;;;;;;;;;4974081;28;20427;-70
2022/03/22 04:15:18;;;;;;;2.92;0.60;;;;;;;;;;4976345;28;20056;-70
2022/03/22 04:17:48;;;;;;;4.63;0.52;;;;;;;;;;4961241;28;20049;-70
2022/03/22 04:20:21;;;;;;;5.47;0.95;;;;;;;;;;4980040;28;20053;-70
2022/03/22 04:22:53;;;;;;;4.45;0.50;;;;;;;;;;4943621;28;20049;-70
2022/03/22 04:25:24;;;;;;;;;;;;;;;;;;5009978;28;20054;-70
2022/03/22 04:33:34;;;;;;;0.98;0.45;;;;;;;;;;5012171;28;20429;-70
2022/03/22 04:36:05;;;;;;;1.85;0.50;;;;;;;;;;5028678;28;20049;-70
2022/03/22 04:38:35;;;;;;;5.63;0.40;;;;;;;;;;4989185;28;20061;-69
2022/03/22 04:41:08;;;;;;;2.25;0.30;;;;;;;;;;4973405;28;20085;-70
2022/03/22 04:43:40;;;;;;;0.93;0.43;;;;;;;;;;4969774;28;20046;-70
2022/03/22 04:46:10;;;;;;;2.10;0.50;;;;;;;;;;4969819;28;20427;-70
2022/03/22 04:48:42;;;;;;;1.23;0.40;;;;;;;;;;4954527;28;20546;-70
2022/03/22 04:56:56;;;;;;;2.38;0.38;;;;;;;;;;5008703;28;20058;-69
2022/03/22 04:59:28;;;;;;;1.75;0.40;;;;;;;;;;5008697;28;20046;-70
2022/03/22 05:01:59;;;;;;;1.50;0.35;;;;;;;;;;4989028;28;20077;-70
2022/03/22 05:04:37;;;;;;;5.10;0.38;;;;;;;;;;4989025;28;20062;-70
2022/03/22 05:07:11;;;;;;;0.77;0.35;;;;;;;;;;4988847;28;20050;-70
2022/03/22 05:09:42;;;;;;;0.85;0.30;;;;;;;;;;4930424;29;20060;-70
2022/03/22 05:12:14;;;;;;;1.80;0.30;;;;;;;;;;4931301;29;20491;-69
2022/03/22 05:14:51;;;;;;;0.45;0.30;;;;;;;;;;4900487;29;20460;-69
2022/03/22 05:17:23;;;;;;;1.80;0.20;;;;;;;;;;4967779;28;20763;-70
2022/03/22 05:19:58;;;;;;;1.70;0.40;;;;;;;;;;4969427;28;20514;-69
2022/03/22 05:22:28;;;;;;;3.60;0.43;;;;;;;;;;5007735;28;20139;-69
2022/03/22 05:24:59;;;;;;;1.90;0.52;;;;;;;;;;5008103;28;20045;-69
2022/03/22 05:27:30;;;;;;;1.70;0.30;;;;;;;;;;5008415;28;20062;-69
2022/03/22 05:30:01;;;;;;;3.42;1.10;;;;;;;;;;5008443;28;20058;-69
2022/03/22 05:32:31;;;;;;;1.48;0.40;;;;;;;;;;4950009;29;20086;-68
2022/03/22 05:35:03;;;;;;;3.53;0.43;;;;;;;;;;4950166;29;20558;-70
2022/03/22 05:37:34;;;;;;;0.95;0.40;;;;;;;;;;4950208;29;20076;-69
2022/03/22 05:40:07;;;;;;;;;;;;;;;;;;4991618;28;20054;-70
2022/03/22 05:42:41;;;;;;;3.17;0.60;;;;;;;;;;4995252;28;19921;-69
2022/03/22 05:45:15;;;;;;;3.70;0.40;;;;;;;;;;4965792;28;20076;-69
2022/03/22 05:47:45;;;;;;;2.13;0.47;;;;;;;;;;5012175;28;20532;-71
2022/03/22 05:50:17;;;;;;;3.38;0.47;;;;;;;;;;5028145;28;20159;-68
2022/03/22 05:52:53;;;;;;;1.13;0.40;;;;;;;;;;4996130;28;20556;-70
2022/03/22 05:55:27;;;;;;;3.13;0.40;;;;;;;;;;4988347;28;20063;-69
2022/03/22 05:57:57;;;;;;;0.93;0.40;;;;;;;;;;5004582;28;20066;-69
2022/03/22 06:00:28;;;;;;;5.70;0.47;;;;;;;;;;4972115;28;20478;-69
2022/03/22 06:03:00;;;;;;;2.17;0.57;;;;;;;;;;4972460;28;20054;-69
2022/03/22 06:05:31;;;;;;;1.27;0.38;;;;;;;;;;4972641;28;20054;-69
2022/03/22 06:08:04;;;;;;;2.35;0.50;;;;;;;;;;4969026;28;20055;-69
2022/03/22 06:10:41;;;;;;;2.92;0.40;;;;;;;;;;4935374;28;20061;-69
2022/03/22 06:13:12;;;;;;;1.55;0.20;;;;;;;;;;4956114;28;20054;-69
2022/03/22 06:15:44;;;;;;;3.05;0.45;;;;;;;;;;4940312;28;20058;-69
2022/03/22 06:18:15;;;;;;;1.00;0.45;;;;;;;;;;4983748;28;20053;-69
2022/03/22 06:20:46;;;;;;;5.35;0.60;;;;;;;;;;5029533;28;20054;-69
2022/03/22 06:23:17;;;;;;;5.78;0.52;;;;;;;;;;5031773;28;20053;-69
2022/03/22 06:25:51;;;;;;;3.90;0.40;;;;;;;;;;4991701;28;20090;-69
2022/03/22 06:28:22;;;;;;;1.58;0.30;;;;;;;;;;4991634;28;20058;-69
2022/03/22 06:30:53;;;;;;;0.70;0.50;;;;;;;;;;4959316;28;20058;-69
2022/03/22 06:33:27;;;;;;;0.63;0.40;;;;;;;;;;4991695;28;20062;-70
2022/03/22 06:36:05;;;;;;;3.20;1.15;;;;;;;;;;4992083;28;20051;-69
2022/03/22 06:38:39;;;;;;;1.30;0.60;;;;;;;;;;4975904;28;20057;-69
2022/03/22 06:41:10;;;;;;;1.15;0.30;;;;;;;;;;4991653;28;20053;-69
2022/03/22 06:43:40;;;;;;;1.20;0.68;;;;;;;;;;4917208;29;20059;-69
2022/03/22 06:46:11;;;;;;;0.93;0.40;;;;;;;;;;4976014;28;20066;-69
2022/03/22 06:48:42;;;;;;;2.50;0.57;;;;;;;;;;4991254;28;20059;-69
2022/03/22 06:51:14;;;;;;;1.38;0.57;;;;;;;;;;4944029;28;20065;-69
2022/03/22 06:53:44;;;;;;;3.17;0.40;;;;;;;;;;4974939;28;20046;-69
2022/03/22 06:56:18;;;;;;;1.48;0.30;;;;;;;;;;4991401;28;20718;-69
2022/03/22 06:58:49;;;;;;;4.40;0.40;;;;;;;;;;4990697;28;20046;-68
2022/03/22 07:01:20;;;;;;;1.77;0.40;;;;;;;;;;4991167;28;20084;-69
2022/03/22 07:03:51;;;;;;;4.25;0.30;;;;;;;;;;4985308;28;20549;-69
2022/03/22 07:06:23;;;;;;;2.13;0.57;;;;;;;;;;5030493;28;20050;-69
2022/03/22 07:08:54;;;;;;;4.55;0.40;;;;;;;;;;5014453;28;20064;-69
2022/03/22 07:14:14;;;;;;;1.52;0.30;;;;;;;;;;5045165;28;20056;-69
2022/03/22 07:16:48;;;;;;;0.93;0.32;;;;;;;;;;5092648;28;20044;-69
2022/03/22 07:19:22;;;;;;;0.75;0.30;;;;;;;;;;5092547;28;20040;-68
2022/03/22 07:21:57;;;;;;;2.58;0.60;;;;;;;;;;5092681;28;20040;-69
2022/03/22 07:24:30;;;;;;;2.88;0.73;;;;;;;;;;5092622;28;20032;-67
2022/03/22 07:27:04;;;;;;;0.75;0.40;;;;;;;;;;5092635;28;20048;-69
2022/03/22 07:29:34;;;;;;;2.40;0.40;;;;;;;;;;5040526;28;20056;-68
2022/03/22 07:32:05;;;;;;;1.33;0.40;;;;;;;;;;5091953;28;20044;-69
2022/03/22 07:34:36;;;;;;;2.35;0.50;;;;;;;;;;5040077;28;20071;-68
2022/03/22 07:37:10;;;;;;;1.50;0.47;;;;;;;;;;5092344;28;20067;-68
2022/03/22 07:39:40;;;;;;;0.88;0.50;;;;;;;;;;5040000;28;20725;-68
2022/03/22 07:42:10;;;;;;;3.72;0.47;;;;;;;;;;5092423;28;20040;-69
2022/03/22 07:44:42;;;;;;;1.63;0.50;;;;;;;;;;5092077;28;20388;-68
2022/03/22 07:47:15;;;;;;;0.73;0.40;;;;;;;;;;5029486;28;20061;-69
2022/03/22 07:55:32;;;;;;;2.20;0.32;;;;;;;;;;4970629;28;20399;-68
2022/03/22 07:58:05;;;;;;;3.33;0.40;;;;;;;;;;4969986;28;20524;-68
2022/03/22 08:00:38;;;;;;;2.70;0.50;;;;;;;;;;4970532;28;20423;-69
2022/03/22 08:03:15;;;;;;;3.55;0.50;;;;;;;;;;4954210;28;20054;-69
2022/03/22 08:05:48;;;;;;;4.03;0.55;;;;;;;;;;4970436;28;20070;-68
2022/03/22 08:08:20;;;;;;;0.73;0.40;;;;;;;;;;4970210;28;20058;-69
2022/03/22 08:11:06;;;;;;;0.90;0.38;;;;;;;;;;4912118;28;20050;-69
2022/03/22 08:13:38;;;;;;;4.38;0.50;;;;;;;;;;4954256;28;20055;-69
2022/03/22 08:16:10;;;;;;;3.13;0.40;;;;;;;;;;4938951;28;20050;-69
2022/03/22 08:18:43;;;;;;;1.48;0.43;;;;;;;;;;4954169;28;20055;-69
2022/03/22 08:21:15;;;;;;;1.88;0.40;;;;;;;;;;4912491;29;20071;-68
2022/03/22 08:23:45;;;;;;;4.47;0.60;;;;;;;;;;4916821;28;20071;-69
2022/03/22 08:26:16;;;;;;;5.38;0.47;;;;;;;;;;4972185;28;20050;-68
2022/03/22 08:28:49;;;;;;;0.90;0.40;;;;;;;;;;5009099;28;20060;-68
2022/03/22 08:31:20;;;;;;;1.30;0.25;;;;;;;;;;5009229;28;20380;-68
2022/03/22 08:33:53;;;;;;;1.17;0.40;;;;;;;;;;4952956;28;20053;-68
2022/03/22 08:36:25;;;;;;;2.47;0.30;;;;;;;;;;4950434;29;20059;-69
2022/03/22 08:38:58;;;;;;;3.47;0.70;;;;;;;;;;4950742;29;20082;-68
2022/03/22 08:41:28;;;;;;;11.63;0.70;;;;;;;;;;4934586;29;20484;-68
2022/03/22 08:44:02;;;;;;;2.78;0.30;;;;;;;;;;4949945;28;20055;-68
2022/03/22 08:46:34;;;;;;;4.30;0.30;;;;;;;;;;4950553;29;20538;-68
2022/03/22 08:49:10;;;;;;;3.03;0.35;;;;;;;;;;4934878;29;20054;-68
2022/03/22 08:51:43;;;;;;;;;;;;;;;;;;4950905;29;20062;-69
2022/03/22 08:54:14;;;;;;;1.98;0.20;;;;;;;;;;4950613;29;19945;-68
2022/03/22 08:56:46;;;;;;;1.25;0.57;;;;;;;;;;4930837;29;20059;-68
2022/03/22 08:59:17;;;;;;;1.23;0.40;;;;;;;;;;4956804;28;20054;-68
2022/03/22 09:01:47;;;;;;;3.10;0.30;;;;;;;;;;4969563;28;20066;-68
2022/03/22 09:07:09;;;;;;;3.22;0.40;;;;;;;;;;4950334;29;20066;-68
2022/03/22 09:09:43;;;;;;;0.77;0.35;;;;;;;;;;4950373;29;20070;-68
2022/03/22 09:12:14;;;;;;;3.22;0.50;;;;;;;;;;4966037;28;20054;-69
2022/03/22 09:14:44;;;;;;;0.73;0.43;;;;;;;;;;5020189;28;20486;-69
2022/03/22 09:17:22;;;;;;;1.85;0.30;;;;;;;;;;4995366;28;20058;-68
2022/03/22 09:19:58;;;;;;;3.20;0.50;;;;;;;;;;5012409;28;20488;-69
2022/03/22 09:22:29;;;;;;;2.17;0.50;;;;;;;;;;4994988;28;20060;-69
2022/03/22 09:25:00;;;;;;;1.98;0.52;;;;;;;;;;5028149;28;20045;-68
2022/03/22 09:27:32;;;;;;;1.85;0.63;;;;;;;;;;5028188;28;20425;-69
2022/03/22 09:30:06;;;;;;;6.63;0.60;;;;;;;;;;5028166;28;20064;-68
2022/03/22 09:32:40;;;;;;;1.15;0.50;;;;;;;;;;4996096;28;20425;-70
2022/03/22 09:35:13;;;;;;;5.43;0.93;;;;;;;;;;4998772;28;20049;-68
2022/03/22 09:37:48;;;;;;;1.83;0.52;;;;;;;;;;5047944;28;20052;-69
2022/03/22 09:40:21;;;;;;;5.90;1.23;;;;;;;;;;5008072;28;20060;-69
2022/03/22 09:42:54;;;;;;;6.93;0.95;;;;;;;;;;5002589;28;20560;-68
2022/03/22 09:45:30;;;;;;;3.88;0.63;;;;;;;;;;5008132;28;20058;-69
2022/03/22 09:48:04;;;;;;;1.48;0.45;;;;;;;;;;5008279;28;20402;-69
2022/03/22 09:53:28;;;;;;;2.58;0.80;;;;;;;;;;5008131;28;20383;-71
2022/03/22 09:55:58;;;;;;;7.13;0.50;;;;;;;;;;5010208;28;20069;-72
2022/03/22 09:58:32;;;;;;;9.95;0.65;;;;;;;;;;5011631;28;20541;-69
2022/03/22 10:01:05;;;;;;;;;;;;;;;;;;4996537;28;20054;-68
2022/03/22 10:03:35;;;;;;;2.10;0.50;;;;;;;;;;4963447;28;19921;-69
2022/03/22 10:06:08;;;;;;;4.82;1.13;;;;;;;;;;4992022;28;20522;-69
2022/03/22 10:08:52;;;;;;;4.40;0.60;;;;;;;;;;4992143;28;20066;-69
2022/03/22 10:11:41;;;;;;;10.48;0.93;;;;;;;;;;4991977;28;20062;-69
2022/03/22 10:14:13;;;;;;;8.60;1.20;;;;;;;;;;4992121;28;20069;-68
2022/03/22 10:16:51;;;;;;;3.85;1.17;;;;;;;;;;4953194;28;20476;-69
2022/03/22 10:19:25;;;;;;;6.95;0.95;;;;;;;;;;4992319;28;20416;-68
2022/03/22 10:21:57;;;;;;;8.85;1.25;;;;;;;;;;4972343;28;20055;-68
2022/03/22 10:24:29;;;;;;;7.95;1.10;;;;;;;;;;4972346;28;20059;-67
2022/03/22 10:27:01;;;;;;;4.03;1.10;;;;;;;;;;4972423;28;20054;-68
2022/03/22 10:29:32;;;;;;;8.45;1.25;;;;;;;;;;4972263;28;20063;-67
2022/03/22 10:32:07;;;;;;;4.43;0.80;;;;;;;;;;4972346;28;20062;-69
2022/03/22 10:34:39;;;;;;;6.80;1.75;;;;;;;;;;4971992;28;20055;-69
2022/03/22 10:37:11;;;;;;;6.78;1.00;;;;;;;;;;4959438;28;20154;-70
2022/03/22 10:39:45;;;;;;;8.93;1.23;;;;;;;;;;4978969;28;20077;-69
2022/03/22 10:42:25;;;;;;;6.95;1.20;;;;;;;;;;5011089;28;20481;-68
2022/03/22 10:44:59;;;;;;;8.02;1.08;;;;;;;;;;4995175;28;20169;-69
2022/03/22 10:47:29;;;;;;;2.53;0.98;;;;;;;;;;4994545;28;20469;-69
2022/03/22 10:50:07;;;;;;;10.27;1.40;;;;;;;;;;5011255;28;20058;-69
2022/03/22 10:52:49;;;;;;;5.78;1.20;;;;;;;;;;5010988;28;20073;-67
2022/03/22 10:55:21;;;;;;;7.70;1.02;;;;;;;;;;5028383;28;20069;-69
2022/03/22 10:57:56;;;;;;;8.85;1.15;;;;;;;;;;5030324;28;20694;-69
2022/03/22 11:00:30;;;;;;;3.08;0.98;;;;;;;;;;5085957;28;20052;-69
2022/03/22 11:03:08;;;;;;;1.45;0.70;;;;;;;;;;5041339;28;20052;-67
2022/03/22 11:05:41;;;;;;;2.13;0.70;;;;;;;;;;5093214;28;20032;-70
2022/03/22 11:08:11;;;;;;;1.80;0.50;;;;;;;;;;5048786;28;20168;-69
2022/03/22 11:10:42;;;;;;;0.98;0.30;;;;;;;;;;5050458;28;20057;-70
2022/03/22 11:13:13;;;;;;;2.08;0.50;;;;;;;;;;5017378;28;20045;-70
2022/03/22 11:15:49;;;;;;;1.13;0.40;;;;;;;;;;5017258;28;20509;-69
2022/03/22 11:18:25;;;;;;;0.88;0.20;;;;;;;;;;5050095;28;20060;-70
2022/03/22 11:21:01;;;;;;;3.15;0.30;;;;;;;;;;5050042;28;20053;-70
2022/03/22 11:23:35;;;;;;;1.75;0.30;;;;;;;;;;5017712;28;20135;-70
2022/03/22 11:26:08;;;;;;;0.25;0.22;;;;;;;;;;5049936;28;20052;-69
2022/03/22 11:28:41;;;;;;;1.40;0.43;;;;;;;;;;5049847;28;20075;-69
2022/03/22 11:31:21;;;;;;;2.83;0.30;;;;;;;;;;4958267;28;20067;-70
2022/03/22 11:34:11;;;;;;;0.47;0.30;;;;;;;;;;4996071;28;20465;-70
2022/03/22 11:36:53;;;;;;;0.47;0.25;;;;;;;;;;5012069;28;20394;-70
2022/03/22 11:42:25;;;;;;;1.48;0.38;;;;;;;;;;4987100;28;20052;-69
2022/03/22 11:45:07;;;;;;;0.60;0.30;;;;;;;;;;5029451;28;20057;-68
2022/03/22 11:47:43;;;;;;;0.52;0.32;;;;;;;;;;5029766;28;20058;-67
2022/03/22 11:50:19;;;;;;;2.70;0.38;;;;;;;;;;5029743;28;20069;-69
2022/03/22 11:52:58;;;;;;;0.93;0.63;;;;;;;;;;5013449;28;20054;-72
2022/03/22 11:55:32;;;;;;;1.15;0.40;;;;;;;;;;5029519;28;20433;-68
2022/03/22 11:58:09;;;;;;;0.50;0.40;;;;;;;;;;5012737;28;20069;-68
2022/03/22 12:00:55;;;;;;;0.30;0.28;;;;;;;;;;5029398;28;20049;-69
2022/03/22 12:03:30;;;;;;;;;;;;;;;;;;4981858;28;20057;-68
2022/03/22 12:06:13;;;;;;;23.77;2.95;;;;;;;;;;5029679;28;20385;-68
2022/03/22 12:08:46;;;;;;;4.85;0.43;;;;;;;;;;5040520;28;20464;-68
2022/03/22 12:11:19;;;;;;;1.50;0.25;;;;;;;;;;5069177;28;20048;-68
2022/03/22 12:13:49;;;;;;;3.97;0.50;;;;;;;;;;5069243;28;20058;-69
2022/03/22 12:16:28;;;;;;;1.45;0.55;;;;;;;;;;5069275;28;20381;-68
2022/03/22 12:19:01;;;;;;;1.13;0.40;;;;;;;;;;5048404;28;20052;-68
2022/03/22 12:21:35;;;;;;;0.50;0.40;;;;;;;;;;5051070;28;20056;-69
2022/03/22 12:24:06;;;;;;;1.67;0.30;;;;;;;;;;5052505;28;20060;-68
2022/03/22 12:26:41;;;;;;;1.65;0.30;;;;;;;;;;5068933;28;20044;-69
2022/03/22 12:29:14;;;;;;;1.67;0.30;;;;;;;;;;5068818;28;20417;-67
2022/03/22 12:31:50;;;;;;;0.88;0.20;;;;;;;;;;5028763;28;20045;-68
2022/03/22 12:34:28;;;;;;;0.40;0.20;;;;;;;;;;4996821;28;20056;-68
2022/03/22 12:37:01;;;;;;;2.70;0.30;;;;;;;;;;4989115;28;20481;-68
2022/03/22 12:39:41;;;;;;;4.03;0.40;;;;;;;;;;4989298;28;20053;-68
2022/03/22 12:42:13;;;;;;;3.60;0.45;;;;;;;;;;4957085;28;20502;-69
2022/03/22 12:44:47;;;;;;;1.92;0.32;;;;;;;;;;4989403;28;20645;-68
2022/03/22 12:47:39;;;;;;;0.32;0.22;;;;;;;;;;4989170;28;20046;-69
2022/03/22 12:50:17;;;;;;;1.00;0.30;;;;;;;;;;4959436;28;20058;-69
2022/03/22 12:52:48;;;;;;;1.95;0.50;;;;;;;;;;4973057;28;20054;-68
2022/03/22 12:55:22;;;;;;;0.43;0.22;;;;;;;;;;4973533;28;20058;-69
2022/03/22 12:57:58;;;;;;;0.22;0.20;;;;;;;;;;5015423;28;20509;-69
2022/03/22 13:00:34;;;;;;;5.00;0.40;;;;;;;;;;5032824;28;20472;-69
2022/03/22 13:03:10;;;;;;;0.63;0.40;;;;;;;;;;5015264;28;20476;-68
2022/03/22 13:05:47;;;;;;;2.22;0.30;;;;;;;;;;4998657;28;20050;-69
2022/03/22 13:08:24;;;;;;;1.95;0.20;;;;;;;;;;5009896;28;20073;-70
2022/03/22 13:16:42;;;;;;;4.03;0.40;;;;;;;;;;5059974;28;20059;-68
2022/03/22 13:19:19;;;;;;;0.60;0.40;;;;;;;;;;5040814;28;20060;-69
2022/03/22 13:21:54;;;;;;;1.23;0.30;;;;;;;;;;5091152;28;20044;-69
2022/03/22 13:24:27;;;;;;;1.65;0.30;;;;;;;;;;5008672;28;20052;-72
2022/03/22 13:27:07;;;;;;;0.40;0.20;;;;;;;;;;5105754;28;20040;-69
2022/03/22 13:29:46;;;;;;;1.38;0.30;;;;;;;;;;5111454;28;20048;-69
2022/03/22 13:32:30;;;;;;;0.20;0.20;;;;;;;;;;5115201;28;20039;-69
2022/03/22 13:35:05;;;;;;;0.73;0.40;;;;;;;;;;5098193;28;20050;-70
2022/03/22 13:37:52;;;;;;;0.93;0.32;;;;;;;;;;5097774;28;20506;-71
2022/03/22 13:40:36;;;;;;;3.33;0.60;;;;;;;;;;5065527;28;20518;-70
2022/03/22 13:43:12;;;;;;;0.40;0.20;;;;;;;;;;5095856;28;20044;-69
2022/03/22 13:45:55;;;;;;;0.95;0.32;;;;;;;;;;5071896;28;20060;-67
2022/03/22 13:48:25;;;;;;;0.77;0.30;;;;;;;;;;5022290;28;20057;-68
2022/03/22 13:50:57;;;;;;;2.47;0.30;;;;;;;;;;5029078;28;20061;-69
2022/03/22 13:53:34;;;;;;;0.50;0.28;;;;;;;;;;5034101;28;20045;-70
2022/03/22 13:56:07;;;;;;;0.95;0.55;;;;;;;;;;5044940;28;20049;-70
2022/03/22 13:58:45;;;;;;;0.20;0.20;;;;;;;;;;5028369;28;20418;-71
2022/03/22 14:01:20;;;;;;;2.35;0.40;;;;;;;;;;5031198;28;20049;-70
2022/03/22 14:03:54;;;;;;;3.13;0.30;;;;;;;;;;5031336;28;20057;-68
2022/03/22 14:06:28;;;;;;;1.60;0.30;;;;;;;;;;4973244;28;20517;-71
2022/03/22 14:08:58;;;;;;;2.92;0.30;;;;;;;;;;5001050;28;20084;-69
2022/03/22 14:11:31;;;;;;;0.90;0.20;;;;;;;;;;4991493;28;20058;-70
2022/03/22 14:14:02;;;;;;;0.73;0.68;;;;;;;;;;4983834;28;20061;-70
2022/03/22 14:16:33;;;;;;;4.00;0.30;;;;;;;;;;4991351;28;20518;-70
2022/03/22 14:19:03;;;;;;;1.25;0.30;;;;;;;;;;4927951;28;20549;-70
2022/03/22 14:21:54;;;;;;;1.60;0.20;;;;;;;;;;4975882;28;20427;-70
2022/03/22 14:24:27;;;;;;;1.05;0.57;;;;;;;;;;4951522;28;20059;-69
2022/03/22 14:26:59;;;;;;;0.70;0.55;;;;;;;;;;4959630;28;20106;-69
2022/03/22 14:29:29;;;;;;;0.30;0.25;;;;;;;;;;4972208;28;20061;-71
2022/03/22 14:32:02;;;;;;;0.30;0.22;;;;;;;;;;4972262;28;20558;-70
2022/03/22 14:37:25;;;;;;;1.08;0.20;;;;;;;;;;4952437;28;20408;-70
2022/03/22 14:39:55;;;;;;;1.15;0.30;;;;;;;;;;4935732;29;20063;-71
2022/03/22 14:42:30;;;;;;;0.47;0.20;;;;;;;;;;4917683;29;20055;-70
2022/03/22 14:45:07;;;;;;;0.30;0.20;;;;;;;;;;4887807;29;20051;-71
2022/03/22 14:47:38;;;;;;;1.95;0.22;;;;;;;;;;4918410;29;20055;-69
2022/03/22 14:50:08;;;;;;;1.58;0.30;;;;;;;;;;4930930;29;20071;-70
2022/03/22 14:55:34;;;;;;;0.60;0.22;;;;;;;;;;4877191;29;20541;-72
2022/03/22 15:00:55;;;;;;;0.30;0.30;;;;;;;;;;4898478;29;20055;-71
2022/03/22 15:03:28;;;;;;;1.20;0.40;;;;;;;;;;4952511;29;20054;-73
2022/03/22 15:06:07;;;;;;;0.82;0.30;;;;;;;;;;4936581;29;20522;-73
2022/03/22 15:08:40;;;;;;;0.82;0.40;;;;;;;;;;4952379;29;20508;-71
2022/03/22 15:11:10;;;;;;;0.40;0.20;;;;;;;;;;4920904;29;20055;-74
2022/03/22 15:13:43;;;;;;;1.02;0.30;;;;;;;;;;4952232;29;20051;-74
2022/03/22 15:16:21;;;;;;;0.95;0.35;;;;;;;;;;4990274;28;20450;-73
2022/03/22 15:18:54;;;;;;;0.40;0.30;;;;;;;;;;4952100;29;20521;-69
2022/03/22 15:21:26;;;;;;;0.82;0.30;;;;;;;;;;4935950;29;20062;-73
2022/03/22 15:24:04;;;;;;;0.85;0.82;;;;;;;;;;4951900;29;20423;-72
2022/03/22 15:26:37;;;;;;;0.35;0.32;;;;;;;;;;4932590;29;20055;-73
2022/03/22 15:29:08;;;;;;;2.08;0.60;;;;;;;;;;4952308;28;20090;-74
2022/03/22 15:31:38;;;;;;;1.05;0.30;;;;;;;;;;4955134;28;20510;-72
2022/03/22 15:34:11;;;;;;;1.92;0.50;;;;;;;;;;4971395;28;20403;-72
2022/03/22 15:36:46;;;;;;;0.70;0.30;;;;;;;;;;4971093;28;20054;-73
2022/03/22 15:39:16;;;;;;;0.93;0.22;;;;;;;;;;4970961;28;20070;-72
2022/03/22 15:41:47;;;;;;;0.30;0.30;;;;;;;;;;4971071;28;20051;-72
2022/03/22 15:44:18;;;;;;;0.82;0.32;;;;;;;;;;4971262;28;20059;-72
2022/03/22 15:46:50;;;;;;;1.80;0.40;;;;;;;;;;4971000;28;20061;-71
2022/03/22 15:49:24;;;;;;;0.73;0.40;;;;;;;;;;4970921;28;20055;-72
2022/03/22 15:51:56;;;;;;;0.38;0.22;;;;;;;;;;4971045;28;20562;-68
2022/03/22 15:54:26;;;;;;;0.38;0.25;;;;;;;;;;4950933;28;20614;-70
2022/03/22 15:56:57;;;;;;;1.67;0.40;;;;;;;;;;4978325;28;20538;-73
2022/03/22 15:59:30;;;;;;;1.85;0.30;;;;;;;;;;4990136;28;20069;-70
2022/03/22 16:02:06;;;;;;;0.60;0.28;;;;;;;;;;5001015;28;20053;-73
2022/03/22 16:04:37;;;;;;;1.40;0.28;;;;;;;;;;5056800;28;20076;-73
2022/03/22 16:07:07;;;;;;;1.30;0.30;;;;;;;;;;5069659;28;20056;-72
2022/03/22 16:09:40;;;;;;;3.80;0.30;;;;;;;;;;5069245;28;20040;-74
2022/03/22 16:12:12;;;;;;;3.13;0.65;;;;;;;;;;5085930;28;20578;-72
2022/03/22 16:14:42;;;;;;;1.08;0.30;;;;;;;;;;5029221;28;20046;-72
2022/03/22 16:17:16;;;;;;;0.95;0.30;;;;;;;;;;5029395;28;20525;-74